LTAU/ASR METAR and TAF weather

Enter ICAO airport designator
Station Type Date Time Source
LTAU METAR 2023/02/04 02:20 UTC NOAA

LTAU 040220Z 00000KT 6000 SCT040 BKN180 M06/M08 Q1012 NOSIG


Station Type Date Time Source
LTAU Decoded METAR 2023/02/04 02:20 UTC NOAA

Kayseri / Erkilet, Turkey (LTAU) 38-47N 035-29E 1054M
Feb 03, 2023 - 09:20 PM EST / 2023.02.04 0220 UTC
Wind: Calm:0
Visibility: 3 mile(s):0
Sky conditions: mostly cloudy
Temperature: 21 F (-6 C)
Dew Point: 17 F (-8 C)
Relative Humidity: 85%
Pressure (altimeter): 29.88 in. Hg (1012 hPa)
ob: LTAU 040220Z 00000KT 6000 SCT040 BKN180 M06/M08 Q1012 NOSIG
cycle: 2

Station Type Date Time Source
LTAU TAF 2023/02/03 18:03 UTC NOAA

TAF LTAU 031640Z 0318/0418 VRB02KT 9999 SCT040 BKN180
BECMG 0405/0407 BKN035 BKN080 PROB40
TEMPO 0408/0412 -SHSNRA PROB40
TEMPO 0414/0418 -SHSNRA

Example: see airport list